Terminal Aerodrome Forecast
Issued by NWS Bismarck, ND

Home | Current Version | Previous Version | Text Only | Print | Product List | Glossary On
Versions: 1 2 3 4 5 6 7 8 9 10 11 12 13 14 15 16 17 18 19 20
000
FTUS43 KBIS 261100
TAFISN
TAF
KISN 261132Z 2612/2712 30006KT P6SM -SHSN OVC012
      TEMPO 2612/2614 SCT015 BKN035
     FM261400 34008KT P6SM SCT020 BKN035
     FM262000 VRB02KT P6SM SCT015 BKN150
     FM262200 24004KT P6SM SCT010 BKN035=

USA.gov is the U.S. government's official web portal to all federal, state and local government web resources and services.